sensor_id;sensor_type;location;lat;lon;timestamp;P1;durP1;ratioP1;P2;durP2;ratioP2
65071;SDS011;51663;52.310;17.016;2024-01-16T00:02:59;4.37;;;1.57;;
65071;SDS011;51663;52.310;17.016;2024-01-16T00:06:02;3.40;;;1.93;;
65071;SDS011;51663;52.310;17.016;2024-01-16T00:09:05;4.70;;;1.70;;
65071;SDS011;51663;52.310;17.016;2024-01-16T00:12:09;3.67;;;1.50;;
65071;SDS011;51663;52.310;17.016;2024-01-16T00:15:11;3.20;;;1.53;;
65071;SDS011;51663;52.310;17.016;2024-01-16T00:18:13;3.73;;;1.50;;
65071;SDS011;51663;52.310;17.016;2024-01-16T00:21:16;3.93;;;1.80;;
65071;SDS011;51663;52.310;17.016;2024-01-16T00:24:19;2.10;;;1.57;;
65071;SDS011;51663;52.310;17.016;2024-01-16T00:27:21;3.77;;;1.40;;
65071;SDS011;51663;52.310;17.016;2024-01-16T00:30:26;4.07;;;1.70;;
65071;SDS011;51663;52.310;17.016;2024-01-16T00:33:28;2.33;;;1.60;;
65071;SDS011;51663;52.310;17.016;2024-01-16T00:36:30;3.00;;;1.70;;
65071;SDS011;51663;52.310;17.016;2024-01-16T00:39:32;3.23;;;1.90;;
65071;SDS011;51663;52.310;17.016;2024-01-16T00:42:35;2.03;;;1.70;;
65071;SDS011;51663;52.310;17.016;2024-01-16T00:45:37;4.87;;;1.70;;
65071;SDS011;51663;52.310;17.016;2024-01-16T00:48:40;4.47;;;1.83;;
65071;SDS011;51663;52.310;17.016;2024-01-16T00:51:42;2.83;;;1.60;;
65071;SDS011;51663;52.310;17.016;2024-01-16T00:54:45;3.83;;;1.63;;
65071;SDS011;51663;52.310;17.016;2024-01-16T00:57:47;2.30;;;1.40;;
65071;SDS011;51663;52.310;17.016;2024-01-16T01:00:49;3.43;;;1.53;;
65071;SDS011;51663;52.310;17.016;2024-01-16T01:03:52;3.80;;;1.50;;
65071;SDS011;51663;52.310;17.016;2024-01-16T01:06:54;3.83;;;1.27;;
65071;SDS011;51663;52.310;17.016;2024-01-16T01:09:57;3.07;;;1.83;;
65071;SDS011;51663;52.310;17.016;2024-01-16T01:13:00;4.33;;;3.20;;
65071;SDS011;51663;52.310;17.016;2024-01-16T01:16:03;5.20;;;3.53;;
65071;SDS011;51663;52.310;17.016;2024-01-16T01:19:05;5.53;;;1.73;;
65071;SDS011;51663;52.310;17.016;2024-01-16T01:22:07;3.10;;;1.80;;
65071;SDS011;51663;52.310;17.016;2024-01-16T01:25:10;2.60;;;1.50;;
65071;SDS011;51663;52.310;17.016;2024-01-16T01:28:13;5.17;;;1.70;;
65071;SDS011;51663;52.310;17.016;2024-01-16T01:31:16;2.80;;;1.67;;
65071;SDS011;51663;52.310;17.016;2024-01-16T01:34:18;1.93;;;1.40;;
65071;SDS011;51663;52.310;17.016;2024-01-16T01:37:21;2.87;;;1.97;;
65071;SDS011;51663;52.310;17.016;2024-01-16T01:40:23;2.60;;;2.17;;
65071;SDS011;51663;52.310;17.016;2024-01-16T01:43:26;4.67;;;2.47;;
65071;SDS011;51663;52.310;17.016;2024-01-16T01:46:28;3.77;;;2.33;;
65071;SDS011;51663;52.310;17.016;2024-01-16T01:49:34;6.30;;;2.90;;
65071;SDS011;51663;52.310;17.016;2024-01-16T01:52:38;3.73;;;3.10;;
65071;SDS011;51663;52.310;17.016;2024-01-16T01:55:42;6.47;;;2.30;;
65071;SDS011;51663;52.310;17.016;2024-01-16T01:58:46;4.93;;;2.53;;
65071;SDS011;51663;52.310;17.016;2024-01-16T02:01:50;5.73;;;2.57;;
65071;SDS011;51663;52.310;17.016;2024-01-16T02:04:56;3.10;;;2.70;;
65071;SDS011;51663;52.310;17.016;2024-01-16T02:07:59;6.63;;;2.30;;
65071;SDS011;51663;52.310;17.016;2024-01-16T02:11:02;2.87;;;2.30;;
65071;SDS011;51663;52.310;17.016;2024-01-16T02:14:04;5.80;;;2.40;;
65071;SDS011;51663;52.310;17.016;2024-01-16T02:17:08;3.43;;;2.30;;
65071;SDS011;51663;52.310;17.016;2024-01-16T02:20:11;5.87;;;2.20;;
65071;SDS011;51663;52.310;17.016;2024-01-16T02:23:13;3.50;;;2.40;;
65071;SDS011;51663;52.310;17.016;2024-01-16T02:26:17;6.87;;;2.47;;
65071;SDS011;51663;52.310;17.016;2024-01-16T02:29:20;3.23;;;2.37;;
65071;SDS011;51663;52.310;17.016;2024-01-16T02:32:23;4.40;;;2.43;;
65071;SDS011;51663;52.310;17.016;2024-01-16T02:35:25;5.33;;;2.73;;
65071;SDS011;51663;52.310;17.016;2024-01-16T02:38:28;3.73;;;3.10;;
65071;SDS011;51663;52.310;17.016;2024-01-16T02:41:31;7.63;;;4.03;;
65071;SDS011;51663;52.310;17.016;2024-01-16T02:44:37;6.87;;;4.20;;
65071;SDS011;51663;52.310;17.016;2024-01-16T02:47:42;4.77;;;2.47;;
65071;SDS011;51663;52.310;17.016;2024-01-16T02:50:45;2.57;;;1.80;;
65071;SDS011;51663;52.310;17.016;2024-01-16T02:53:48;5.27;;;1.93;;
65071;SDS011;51663;52.310;17.016;2024-01-16T02:56:50;2.67;;;1.77;;
65071;SDS011;51663;52.310;17.016;2024-01-16T02:59:53;2.27;;;1.73;;
65071;SDS011;51663;52.310;17.016;2024-01-16T03:02:55;3.23;;;1.83;;
65071;SDS011;51663;52.310;17.016;2024-01-16T03:05:57;3.03;;;1.87;;
65071;SDS011;51663;52.310;17.016;2024-01-16T03:09:01;4.63;;;1.90;;
65071;SDS011;51663;52.310;17.016;2024-01-16T03:12:05;3.87;;;2.00;;
65071;SDS011;51663;52.310;17.016;2024-01-16T03:15:08;4.80;;;2.30;;
65071;SDS011;51663;52.310;17.016;2024-01-16T03:18:11;4.63;;;2.43;;
65071;SDS011;51663;52.310;17.016;2024-01-16T03:21:14;2.73;;;1.90;;
65071;SDS011;51663;52.310;17.016;2024-01-16T03:24:17;3.37;;;2.20;;
65071;SDS011;51663;52.310;17.016;2024-01-16T03:27:19;2.93;;;2.07;;
65071;SDS011;51663;52.310;17.016;2024-01-16T03:30:22;4.40;;;2.10;;
65071;SDS011;51663;52.310;17.016;2024-01-16T03:33:24;3.27;;;1.73;;
65071;SDS011;51663;52.310;17.016;2024-01-16T03:36:27;3.07;;;1.93;;
65071;SDS011;51663;52.310;17.016;2024-01-16T03:39:30;3.30;;;2.00;;
65071;SDS011;51663;52.310;17.016;2024-01-16T03:42:32;3.20;;;1.90;;
65071;SDS011;51663;52.310;17.016;2024-01-16T03:45:34;5.07;;;1.83;;
65071;SDS011;51663;52.310;17.016;2024-01-16T03:48:37;2.10;;;1.60;;
65071;SDS011;51663;52.310;17.016;2024-01-16T03:51:40;4.17;;;2.10;;
65071;SDS011;51663;52.310;17.016;2024-01-16T03:54:47;2.30;;;1.80;;
65071;SDS011;51663;52.310;17.016;2024-01-16T03:57:50;3.10;;;1.50;;
65071;SDS011;51663;52.310;17.016;2024-01-16T04:00:52;4.03;;;1.57;;
65071;SDS011;51663;52.310;17.016;2024-01-16T04:03:55;2.50;;;1.60;;
65071;SDS011;51663;52.310;17.016;2024-01-16T04:06:58;2.00;;;1.80;;
65071;SDS011;51663;52.310;17.016;2024-01-16T04:10:00;2.97;;;1.63;;
65071;SDS011;51663;52.310;17.016;2024-01-16T04:13:04;5.40;;;1.70;;
65071;SDS011;51663;52.310;17.016;2024-01-16T04:16:06;4.00;;;1.63;;
65071;SDS011;51663;52.310;17.016;2024-01-16T04:19:08;2.37;;;1.60;;
65071;SDS011;51663;52.310;17.016;2024-01-16T04:22:11;3.13;;;1.97;;
65071;SDS011;51663;52.310;17.016;2024-01-16T04:25:13;4.13;;;1.70;;
65071;SDS011;51663;52.310;17.016;2024-01-16T04:28:16;4.87;;;2.00;;
65071;SDS011;51663;52.310;17.016;2024-01-16T04:31:19;3.37;;;1.77;;
65071;SDS011;51663;52.310;17.016;2024-01-16T04:34:23;4.87;;;1.67;;
65071;SDS011;51663;52.310;17.016;2024-01-16T04:37:26;3.27;;;1.73;;
65071;SDS011;51663;52.310;17.016;2024-01-16T04:40:28;3.70;;;1.83;;
65071;SDS011;51663;52.310;17.016;2024-01-16T04:43:30;3.20;;;1.90;;
65071;SDS011;51663;52.310;17.016;2024-01-16T04:46:33;3.37;;;2.23;;
65071;SDS011;51663;52.310;17.016;2024-01-16T04:49:36;2.57;;;1.60;;
65071;SDS011;51663;52.310;17.016;2024-01-16T04:52:38;3.07;;;1.70;;
65071;SDS011;51663;52.310;17.016;2024-01-16T04:55:40;3.27;;;1.80;;
65071;SDS011;51663;52.310;17.016;2024-01-16T04:58:43;2.67;;;1.87;;
65071;SDS011;51663;52.310;17.016;2024-01-16T05:01:45;3.53;;;1.77;;
65071;SDS011;51663;52.310;17.016;2024-01-16T05:04:48;3.23;;;1.60;;
65071;SDS011;51663;52.310;17.016;2024-01-16T05:07:53;2.83;;;1.77;;
65071;SDS011;51663;52.310;17.016;2024-01-16T05:10:56;4.07;;;1.70;;
65071;SDS011;51663;52.310;17.016;2024-01-16T05:13:58;4.33;;;2.00;;
65071;SDS011;51663;52.310;17.016;2024-01-16T05:17:01;5.87;;;2.03;;
65071;SDS011;51663;52.310;17.016;2024-01-16T05:20:04;2.77;;;1.87;;
65071;SDS011;51663;52.310;17.016;2024-01-16T05:23:07;2.20;;;2.00;;
65071;SDS011;51663;52.310;17.016;2024-01-16T05:26:10;5.27;;;2.03;;
65071;SDS011;51663;52.310;17.016;2024-01-16T05:29:12;4.63;;;2.30;;
65071;SDS011;51663;52.310;17.016;2024-01-16T05:32:14;4.47;;;2.60;;
65071;SDS011;51663;52.310;17.016;2024-01-16T05:35:17;5.57;;;2.87;;
65071;SDS011;51663;52.310;17.016;2024-01-16T05:38:25;5.90;;;3.10;;
65071;SDS011;51663;52.310;17.016;2024-01-16T05:41:32;6.40;;;2.73;;
65071;SDS011;51663;52.310;17.016;2024-01-16T05:44:35;7.87;;;3.23;;
65071;SDS011;51663;52.310;17.016;2024-01-16T05:47:38;4.10;;;2.63;;
65071;SDS011;51663;52.310;17.016;2024-01-16T05:50:43;7.47;;;3.00;;
65071;SDS011;51663;52.310;17.016;2024-01-16T05:53:46;5.33;;;3.30;;
65071;SDS011;51663;52.310;17.016;2024-01-16T05:56:48;6.23;;;3.37;;
65071;SDS011;51663;52.310;17.016;2024-01-16T05:59:52;6.73;;;4.07;;
65071;SDS011;51663;52.310;17.016;2024-01-16T06:02:55;9.83;;;5.03;;
65071;SDS011;51663;52.310;17.016;2024-01-16T06:05:58;13.70;;;6.20;;
65071;SDS011;51663;52.310;17.016;2024-01-16T06:09:00;23.80;;;7.53;;
65071;SDS011;51663;52.310;17.016;2024-01-16T06:12:07;15.37;;;7.37;;
65071;SDS011;51663;52.310;17.016;2024-01-16T06:15:11;18.67;;;8.07;;
65071;SDS011;51663;52.310;17.016;2024-01-16T06:18:13;18.27;;;7.30;;
65071;SDS011;51663;52.310;17.016;2024-01-16T06:21:16;16.43;;;8.00;;
65071;SDS011;51663;52.310;17.016;2024-01-16T06:24:22;17.07;;;7.47;;
65071;SDS011;51663;52.310;17.016;2024-01-16T06:27:24;15.27;;;7.00;;
65071;SDS011;51663;52.310;17.016;2024-01-16T06:30:27;62.57;;;25.97;;
65071;SDS011;51663;52.310;17.016;2024-01-16T06:33:29;32.17;;;14.03;;
65071;SDS011;51663;52.310;17.016;2024-01-16T06:36:31;38.53;;;16.00;;
65071;SDS011;51663;52.310;17.016;2024-01-16T06:39:34;17.67;;;8.83;;
65071;SDS011;51663;52.310;17.016;2024-01-16T06:42:36;27.03;;;11.87;;
65071;SDS011;51663;52.310;17.016;2024-01-16T06:45:39;43.07;;;19.77;;
65071;SDS011;51663;52.310;17.016;2024-01-16T06:48:41;28.80;;;14.60;;
65071;SDS011;51663;52.310;17.016;2024-01-16T06:51:44;23.87;;;10.90;;
65071;SDS011;51663;52.310;17.016;2024-01-16T06:54:46;16.80;;;8.23;;
65071;SDS011;51663;52.310;17.016;2024-01-16T06:57:48;16.67;;;7.53;;
65071;SDS011;51663;52.310;17.016;2024-01-16T07:00:51;15.80;;;8.40;;
65071;SDS011;51663;52.310;17.016;2024-01-16T07:03:53;13.90;;;8.30;;
65071;SDS011;51663;52.310;17.016;2024-01-16T07:06:55;17.23;;;7.43;;
65071;SDS011;51663;52.310;17.016;2024-01-16T07:09:57;24.40;;;11.17;;
65071;SDS011;51663;52.310;17.016;2024-01-16T07:13:00;16.33;;;7.20;;
65071;SDS011;51663;52.310;17.016;2024-01-16T07:16:02;18.07;;;8.13;;
65071;SDS011;51663;52.310;17.016;2024-01-16T07:19:05;13.57;;;7.03;;
65071;SDS011;51663;52.310;17.016;2024-01-16T07:22:08;16.00;;;7.90;;
65071;SDS011;51663;52.310;17.016;2024-01-16T07:25:10;19.23;;;8.73;;
65071;SDS011;51663;52.310;17.016;2024-01-16T07:28:12;19.73;;;8.47;;
65071;SDS011;51663;52.310;17.016;2024-01-16T07:31:16;19.00;;;8.47;;
65071;SDS011;51663;52.310;17.016;2024-01-16T07:34:18;18.17;;;8.50;;
65071;SDS011;51663;52.310;17.016;2024-01-16T07:37:24;16.40;;;8.17;;
65071;SDS011;51663;52.310;17.016;2024-01-16T07:40:27;18.27;;;8.43;;
65071;SDS011;51663;52.310;17.016;2024-01-16T07:43:30;16.73;;;7.77;;
65071;SDS011;51663;52.310;17.016;2024-01-16T07:46:32;17.30;;;8.43;;
65071;SDS011;51663;52.310;17.016;2024-01-16T07:49:35;21.83;;;8.37;;
65071;SDS011;51663;52.310;17.016;2024-01-16T07:52:37;17.13;;;8.73;;
65071;SDS011;51663;52.310;17.016;2024-01-16T07:55:41;18.97;;;9.53;;
65071;SDS011;51663;52.310;17.016;2024-01-16T07:58:44;17.87;;;8.17;;
65071;SDS011;51663;52.310;17.016;2024-01-16T08:01:46;18.73;;;8.83;;
65071;SDS011;51663;52.310;17.016;2024-01-16T08:04:48;13.37;;;7.07;;
65071;SDS011;51663;52.310;17.016;2024-01-16T08:07:51;17.10;;;7.27;;
65071;SDS011;51663;52.310;17.016;2024-01-16T08:10:53;12.10;;;6.37;;
65071;SDS011;51663;52.310;17.016;2024-01-16T08:13:55;11.63;;;6.90;;
65071;SDS011;51663;52.310;17.016;2024-01-16T08:16:57;10.27;;;6.20;;
65071;SDS011;51663;52.310;17.016;2024-01-16T08:20:00;14.33;;;6.07;;
65071;SDS011;51663;52.310;17.016;2024-01-16T08:23:02;10.53;;;6.33;;
65071;SDS011;51663;52.310;17.016;2024-01-16T08:26:05;8.93;;;4.63;;
65071;SDS011;51663;52.310;17.016;2024-01-16T08:29:07;10.17;;;4.70;;
65071;SDS011;51663;52.310;17.016;2024-01-16T08:32:10;7.77;;;3.90;;
65071;SDS011;51663;52.310;17.016;2024-01-16T08:35:12;5.63;;;3.40;;
65071;SDS011;51663;52.310;17.016;2024-01-16T08:38:15;6.77;;;3.30;;
65071;SDS011;51663;52.310;17.016;2024-01-16T08:41:17;6.37;;;3.83;;
65071;SDS011;51663;52.310;17.016;2024-01-16T08:44:19;7.00;;;3.43;;
65071;SDS011;51663;52.310;17.016;2024-01-16T08:47:21;5.90;;;3.53;;
65071;SDS011;51663;52.310;17.016;2024-01-16T08:50:24;5.63;;;3.10;;
65071;SDS011;51663;52.310;17.016;2024-01-16T08:53:26;7.47;;;2.83;;
65071;SDS011;51663;52.310;17.016;2024-01-16T08:56:29;6.60;;;3.80;;
65071;SDS011;51663;52.310;17.016;2024-01-16T08:59:31;5.07;;;3.30;;
65071;SDS011;51663;52.310;17.016;2024-01-16T09:02:34;4.10;;;3.30;;
65071;SDS011;51663;52.310;17.016;2024-01-16T09:05:37;4.40;;;3.20;;
65071;SDS011;51663;52.310;17.016;2024-01-16T09:08:41;5.97;;;3.33;;
65071;SDS011;51663;52.310;17.016;2024-01-16T09:11:43;5.77;;;3.10;;
65071;SDS011;51663;52.310;17.016;2024-01-16T09:14:46;5.20;;;3.40;;
65071;SDS011;51663;52.310;17.016;2024-01-16T09:17:48;7.17;;;3.00;;
65071;SDS011;51663;52.310;17.016;2024-01-16T09:20:50;3.90;;;2.93;;
65071;SDS011;51663;52.310;17.016;2024-01-16T09:23:52;5.47;;;3.30;;
65071;SDS011;51663;52.310;17.016;2024-01-16T09:26:55;6.47;;;3.03;;
65071;SDS011;51663;52.310;17.016;2024-01-16T09:29:57;4.97;;;3.00;;
65071;SDS011;51663;52.310;17.016;2024-01-16T09:33:00;4.03;;;2.30;;
65071;SDS011;51663;52.310;17.016;2024-01-16T09:36:03;4.63;;;2.37;;
65071;SDS011;51663;52.310;17.016;2024-01-16T09:39:06;4.90;;;2.23;;
65071;SDS011;51663;52.310;17.016;2024-01-16T09:42:10;6.03;;;2.10;;
65071;SDS011;51663;52.310;17.016;2024-01-16T09:45:12;3.60;;;2.23;;
65071;SDS011;51663;52.310;17.016;2024-01-16T09:48:23;3.67;;;2.47;;
65071;SDS011;51663;52.310;17.016;2024-01-16T09:51:27;4.03;;;2.90;;
65071;SDS011;51663;52.310;17.016;2024-01-16T09:54:30;5.27;;;2.97;;
65071;SDS011;51663;52.310;17.016;2024-01-16T09:57:33;5.83;;;3.50;;
65071;SDS011;51663;52.310;17.016;2024-01-16T10:00:42;4.67;;;3.00;;
65071;SDS011;51663;52.310;17.016;2024-01-16T10:03:45;6.17;;;3.23;;
65071;SDS011;51663;52.310;17.016;2024-01-16T10:06:47;2.87;;;2.60;;
65071;SDS011;51663;52.310;17.016;2024-01-16T10:09:51;4.50;;;2.50;;
65071;SDS011;51663;52.310;17.016;2024-01-16T10:12:53;5.47;;;3.00;;
65071;SDS011;51663;52.310;17.016;2024-01-16T10:15:57;4.93;;;2.70;;
65071;SDS011;51663;52.310;17.016;2024-01-16T10:19:04;7.57;;;2.57;;
65071;SDS011;51663;52.310;17.016;2024-01-16T10:22:10;3.40;;;2.43;;
65071;SDS011;51663;52.310;17.016;2024-01-16T10:25:12;7.23;;;3.20;;
65071;SDS011;51663;52.310;17.016;2024-01-16T10:28:19;3.40;;;2.63;;
65071;SDS011;51663;52.310;17.016;2024-01-16T10:31:26;7.97;;;3.43;;
65071;SDS011;51663;52.310;17.016;2024-01-16T10:34:33;3.63;;;2.50;;
65071;SDS011;51663;52.310;17.016;2024-01-16T10:44:19;3.40;;;2.93;;
65071;SDS011;51663;52.310;17.016;2024-01-16T10:47:22;5.70;;;3.30;;
65071;SDS011;51663;52.310;17.016;2024-01-16T10:50:24;6.30;;;2.90;;
65071;SDS011;51663;52.310;17.016;2024-01-16T10:53:27;6.43;;;2.80;;
65071;SDS011;51663;52.310;17.016;2024-01-16T10:56:34;3.03;;;2.10;;
65071;SDS011;51663;52.310;17.016;2024-01-16T10:59:48;5.37;;;2.83;;
65071;SDS011;51663;52.310;17.016;2024-01-16T11:03:16;6.17;;;3.17;;
65071;SDS011;51663;52.310;17.016;2024-01-16T11:06:21;3.50;;;2.50;;
65071;SDS011;51663;52.310;17.016;2024-01-16T11:09:24;3.50;;;2.70;;
65071;SDS011;51663;52.310;17.016;2024-01-16T11:12:27;4.63;;;2.83;;
65071;SDS011;51663;52.310;17.016;2024-01-16T11:15:32;2.43;;;2.23;;
65071;SDS011;51663;52.310;17.016;2024-01-16T11:18:34;2.97;;;2.10;;
65071;SDS011;51663;52.310;17.016;2024-01-16T11:21:37;3.03;;;2.43;;
65071;SDS011;51663;52.310;17.016;2024-01-16T11:24:42;3.67;;;2.23;;
65071;SDS011;51663;52.310;17.016;2024-01-16T11:27:46;3.53;;;2.47;;
65071;SDS011;51663;52.310;17.016;2024-01-16T11:30:53;4.03;;;1.90;;
65071;SDS011;51663;52.310;17.016;2024-01-16T11:33:55;3.60;;;1.77;;
65071;SDS011;51663;52.310;17.016;2024-01-16T11:36:58;4.30;;;1.90;;
65071;SDS011;51663;52.310;17.016;2024-01-16T11:43:41;5.53;;;2.50;;
65071;SDS011;51663;52.310;17.016;2024-01-16T11:50:27;5.10;;;2.53;;
65071;SDS011;51663;52.310;17.016;2024-01-16T11:53:33;4.37;;;2.57;;
65071;SDS011;51663;52.310;17.016;2024-01-16T11:56:46;3.57;;;2.33;;
65071;SDS011;51663;52.310;17.016;2024-01-16T12:03:25;5.93;;;2.77;;
65071;SDS011;51663;52.310;17.016;2024-01-16T12:06:36;4.27;;;2.20;;
65071;SDS011;51663;52.310;17.016;2024-01-16T12:09:40;2.10;;;1.87;;
65071;SDS011;51663;52.310;17.016;2024-01-16T12:12:42;3.50;;;2.23;;
65071;SDS011;51663;52.310;17.016;2024-01-16T12:15:44;3.43;;;1.93;;
65071;SDS011;51663;52.310;17.016;2024-01-16T12:18:47;4.10;;;2.40;;
65071;SDS011;51663;52.310;17.016;2024-01-16T12:21:53;3.83;;;2.03;;
65071;SDS011;51663;52.310;17.016;2024-01-16T12:24:58;3.17;;;2.00;;
65071;SDS011;51663;52.310;17.016;2024-01-16T12:28:04;6.13;;;2.43;;
65071;SDS011;51663;52.310;17.016;2024-01-16T12:31:08;3.87;;;2.40;;
65071;SDS011;51663;52.310;17.016;2024-01-16T12:34:10;2.27;;;1.97;;
65071;SDS011;51663;52.310;17.016;2024-01-16T12:37:13;4.67;;;1.87;;
65071;SDS011;51663;52.310;17.016;2024-01-16T12:40:16;4.67;;;2.23;;
65071;SDS011;51663;52.310;17.016;2024-01-16T12:43:19;4.30;;;2.60;;
65071;SDS011;51663;52.310;17.016;2024-01-16T12:46:21;3.97;;;2.40;;
65071;SDS011;51663;52.310;17.016;2024-01-16T12:49:23;3.93;;;2.70;;
65071;SDS011;51663;52.310;17.016;2024-01-16T12:52:27;6.30;;;2.80;;
65071;SDS011;51663;52.310;17.016;2024-01-16T12:55:32;6.03;;;3.43;;
65071;SDS011;51663;52.310;17.016;2024-01-16T12:58:35;12.57;;;5.00;;
65071;SDS011;51663;52.310;17.016;2024-01-16T13:01:44;5.30;;;2.93;;
65071;SDS011;51663;52.310;17.016;2024-01-16T13:04:55;7.83;;;3.80;;
65071;SDS011;51663;52.310;17.016;2024-01-16T13:08:02;5.77;;;3.10;;
65071;SDS011;51663;52.310;17.016;2024-01-16T13:11:05;5.50;;;2.87;;
65071;SDS011;51663;52.310;17.016;2024-01-16T13:14:08;3.73;;;2.80;;
65071;SDS011;51663;52.310;17.016;2024-01-16T13:17:11;6.07;;;3.50;;
65071;SDS011;51663;52.310;17.016;2024-01-16T13:20:13;7.23;;;3.27;;
65071;SDS011;51663;52.310;17.016;2024-01-16T13:23:18;7.03;;;3.80;;
65071;SDS011;51663;52.310;17.016;2024-01-16T13:26:20;17.17;;;6.80;;
65071;SDS011;51663;52.310;17.016;2024-01-16T13:29:23;17.47;;;7.33;;
65071;SDS011;51663;52.310;17.016;2024-01-16T13:32:25;28.83;;;10.07;;
65071;SDS011;51663;52.310;17.016;2024-01-16T13:35:28;32.43;;;13.37;;
65071;SDS011;51663;52.310;17.016;2024-01-16T13:38:30;35.83;;;15.00;;
65071;SDS011;51663;52.310;17.016;2024-01-16T13:41:32;27.93;;;13.33;;
65071;SDS011;51663;52.310;17.016;2024-01-16T13:44:34;9.63;;;5.57;;
65071;SDS011;51663;52.310;17.016;2024-01-16T13:47:37;7.43;;;6.53;;
65071;SDS011;51663;52.310;17.016;2024-01-16T13:50:42;7.50;;;4.57;;
65071;SDS011;51663;52.310;17.016;2024-01-16T13:53:44;6.47;;;4.17;;
65071;SDS011;51663;52.310;17.016;2024-01-16T13:56:46;7.47;;;4.03;;
65071;SDS011;51663;52.310;17.016;2024-01-16T14:00:07;8.17;;;4.40;;
65071;SDS011;51663;52.310;17.016;2024-01-16T14:03:15;10.23;;;5.20;;
65071;SDS011;51663;52.310;17.016;2024-01-16T14:06:19;7.67;;;4.87;;
65071;SDS011;51663;52.310;17.016;2024-01-16T14:09:41;10.93;;;5.90;;
65071;SDS011;51663;52.310;17.016;2024-01-16T14:12:47;17.00;;;8.50;;
65071;SDS011;51663;52.310;17.016;2024-01-16T14:15:51;19.13;;;8.03;;
65071;SDS011;51663;52.310;17.016;2024-01-16T14:18:55;15.17;;;8.03;;
65071;SDS011;51663;52.310;17.016;2024-01-16T14:21:57;22.10;;;9.97;;
65071;SDS011;51663;52.310;17.016;2024-01-16T14:25:01;38.00;;;14.57;;
65071;SDS011;51663;52.310;17.016;2024-01-16T14:28:03;37.93;;;14.07;;
65071;SDS011;51663;52.310;17.016;2024-01-16T14:31:06;27.43;;;12.00;;
65071;SDS011;51663;52.310;17.016;2024-01-16T14:34:11;25.27;;;12.77;;
65071;SDS011;51663;52.310;17.016;2024-01-16T14:37:16;35.20;;;15.53;;
65071;SDS011;51663;52.310;17.016;2024-01-16T14:40:18;34.20;;;15.13;;
65071;SDS011;51663;52.310;17.016;2024-01-16T14:43:27;26.77;;;12.67;;
65071;SDS011;51663;52.310;17.016;2024-01-16T14:46:29;26.40;;;11.90;;
65071;SDS011;51663;52.310;17.016;2024-01-16T14:49:31;21.33;;;11.63;;
65071;SDS011;51663;52.310;17.016;2024-01-16T14:52:34;24.03;;;13.57;;
65071;SDS011;51663;52.310;17.016;2024-01-16T14:55:37;29.27;;;16.53;;
65071;SDS011;51663;52.310;17.016;2024-01-16T14:58:39;33.80;;;15.07;;
65071;SDS011;51663;52.310;17.016;2024-01-16T15:01:42;30.73;;;14.67;;
65071;SDS011;51663;52.310;17.016;2024-01-16T15:04:45;27.30;;;13.07;;
65071;SDS011;51663;52.310;17.016;2024-01-16T15:07:48;22.53;;;13.47;;
65071;SDS011;51663;52.310;17.016;2024-01-16T15:10:53;22.87;;;12.80;;
65071;SDS011;51663;52.310;17.016;2024-01-16T15:13:56;23.87;;;13.53;;
65071;SDS011;51663;52.310;17.016;2024-01-16T15:17:02;44.77;;;19.63;;
65071;SDS011;51663;52.310;17.016;2024-01-16T15:20:05;49.47;;;21.70;;
65071;SDS011;51663;52.310;17.016;2024-01-16T15:23:09;50.97;;;23.33;;
65071;SDS011;51663;52.310;17.016;2024-01-16T15:26:13;50.10;;;22.97;;
65071;SDS011;51663;52.310;17.016;2024-01-16T15:29:20;44.03;;;23.57;;
65071;SDS011;51663;52.310;17.016;2024-01-16T15:32:24;35.10;;;17.60;;
65071;SDS011;51663;52.310;17.016;2024-01-16T15:35:26;48.10;;;24.40;;
65071;SDS011;51663;52.310;17.016;2024-01-16T15:38:29;40.33;;;18.27;;
65071;SDS011;51663;52.310;17.016;2024-01-16T15:41:31;24.67;;;12.80;;
65071;SDS011;51663;52.310;17.016;2024-01-16T15:44:35;16.67;;;9.50;;
65071;SDS011;51663;52.310;17.016;2024-01-16T15:47:37;21.60;;;10.43;;
65071;SDS011;51663;52.310;17.016;2024-01-16T15:50:40;19.37;;;9.73;;
65071;SDS011;51663;52.310;17.016;2024-01-16T15:53:43;21.67;;;9.57;;
65071;SDS011;51663;52.310;17.016;2024-01-16T15:56:48;16.37;;;9.60;;
65071;SDS011;51663;52.310;17.016;2024-01-16T15:59:53;17.93;;;9.40;;
65071;SDS011;51663;52.310;17.016;2024-01-16T19:54:02;37.03;;;16.83;;
65071;SDS011;51663;52.310;17.016;2024-01-16T19:57:08;30.93;;;16.47;;
65071;SDS011;51663;52.310;17.016;2024-01-16T20:00:11;32.10;;;15.33;;
65071;SDS011;51663;52.310;17.016;2024-01-16T20:03:14;30.73;;;14.90;;
65071;SDS011;51663;52.310;17.016;2024-01-16T20:06:17;33.43;;;16.03;;
65071;SDS011;51663;52.310;17.016;2024-01-16T20:09:20;141.90;;;69.27;;
65071;SDS011;51663;52.310;17.016;2024-01-16T20:12:23;35.93;;;16.63;;
65071;SDS011;51663;52.310;17.016;2024-01-16T20:15:40;36.20;;;14.73;;
65071;SDS011;51663;52.310;17.016;2024-01-16T20:18:43;30.97;;;14.60;;
65071;SDS011;51663;52.310;17.016;2024-01-16T20:21:45;31.03;;;13.37;;
65071;SDS011;51663;52.310;17.016;2024-01-16T20:24:48;31.20;;;14.70;;
65071;SDS011;51663;52.310;17.016;2024-01-16T20:27:50;28.70;;;13.53;;
65071;SDS011;51663;52.310;17.016;2024-01-16T20:30:53;33.37;;;14.07;;
65071;SDS011;51663;52.310;17.016;2024-01-16T20:33:55;25.70;;;13.33;;
65071;SDS011;51663;52.310;17.016;2024-01-16T20:36:57;32.93;;;13.53;;
65071;SDS011;51663;52.310;17.016;2024-01-16T20:40:00;28.37;;;12.63;;
65071;SDS011;51663;52.310;17.016;2024-01-16T20:43:02;27.77;;;12.40;;
65071;SDS011;51663;52.310;17.016;2024-01-16T20:46:05;25.03;;;11.27;;
65071;SDS011;51663;52.310;17.016;2024-01-16T20:49:07;19.73;;;11.07;;
65071;SDS011;51663;52.310;17.016;2024-01-16T20:52:10;21.83;;;11.67;;
65071;SDS011;51663;52.310;17.016;2024-01-16T20:55:12;23.30;;;10.90;;
65071;SDS011;51663;52.310;17.016;2024-01-16T20:58:15;24.07;;;10.50;;
65071;SDS011;51663;52.310;17.016;2024-01-16T21:01:17;27.60;;;11.60;;
65071;SDS011;51663;52.310;17.016;2024-01-16T21:04:19;20.70;;;10.97;;
65071;SDS011;51663;52.310;17.016;2024-01-16T21:07:22;20.27;;;9.73;;
65071;SDS011;51663;52.310;17.016;2024-01-16T21:10:26;24.47;;;10.83;;
65071;SDS011;51663;52.310;17.016;2024-01-16T21:13:28;28.27;;;10.80;;
65071;SDS011;51663;52.310;17.016;2024-01-16T21:16:31;24.80;;;11.37;;
65071;SDS011;51663;52.310;17.016;2024-01-16T21:19:33;27.90;;;11.77;;
65071;SDS011;51663;52.310;17.016;2024-01-16T21:22:37;26.70;;;12.00;;
65071;SDS011;51663;52.310;17.016;2024-01-16T21:25:39;22.97;;;11.87;;
65071;SDS011;51663;52.310;17.016;2024-01-16T21:28:42;28.60;;;12.40;;
65071;SDS011;51663;52.310;17.016;2024-01-16T21:31:45;34.47;;;13.67;;
65071;SDS011;51663;52.310;17.016;2024-01-16T21:34:49;27.57;;;13.70;;
65071;SDS011;51663;52.310;17.016;2024-01-16T21:37:51;34.13;;;15.07;;
65071;SDS011;51663;52.310;17.016;2024-01-16T21:40:55;32.40;;;13.77;;
65071;SDS011;51663;52.310;17.016;2024-01-16T21:43:57;27.67;;;13.70;;
65071;SDS011;51663;52.310;17.016;2024-01-16T21:47:00;23.50;;;11.93;;
65071;SDS011;51663;52.310;17.016;2024-01-16T21:50:03;27.20;;;12.73;;
65071;SDS011;51663;52.310;17.016;2024-01-16T21:53:08;21.20;;;11.60;;
65071;SDS011;51663;52.310;17.016;2024-01-16T21:56:11;20.77;;;10.57;;
65071;SDS011;51663;52.310;17.016;2024-01-16T21:59:13;20.37;;;11.10;;
65071;SDS011;51663;52.310;17.016;2024-01-16T22:02:15;21.87;;;10.90;;
65071;SDS011;51663;52.310;17.016;2024-01-16T22:05:19;27.43;;;12.00;;
65071;SDS011;51663;52.310;17.016;2024-01-16T22:08:24;28.70;;;12.70;;